76VA weather

Roubin & Janeiro Inc Heliport
Vienna, Virginia, United States

Public forecast

Using degrees Fahrenheit for public forecast. Weather courtesy of forecast.io.

METAR (pilot weather report)

Closest report is Davison Army Air Field, 10.1 nm (18.7 km) SSE. Retrieved 2019/05/24 18:59 UTC (21 minutes ago):

KDAA 241859Z 31010G16KT 10SM FEW250 29/12 A3003 RMK AO2A SLPNO WND DATA/ALSTG ESTMD $

TAF (pilot weather forecast)

Closest forecast is Davison Army Air Field, 10.1 nm (18.7 km) SSE. Retrieved 2019/05/24 17:12 UTC (2 hours ago):

TAF KDAA 241700Z 2417/2523 33015G25KT 9999 SKC QNH2992INS BECMG 2423/2424 33012KT 9999 BKN120 QNH2996INS WND VRB06KT AFT 2503 TX26/2420Z TN16/2509Z